createdAt,value
2023-05-22T00:01:46.972Z,15.00
2023-05-22T00:04:21.574Z,15.00
2023-05-22T00:06:49.534Z,15.00
2023-05-22T00:09:17.186Z,14.90
2023-05-22T00:11:44.865Z,14.90
2023-05-22T00:14:13.806Z,15.00
2023-05-22T00:16:41.636Z,15.00
2023-05-22T00:19:16.830Z,14.90
2023-05-22T00:21:45.371Z,14.90
2023-05-22T00:24:13.018Z,14.90
2023-05-22T00:26:40.800Z,14.90
2023-05-22T00:29:08.619Z,15.00
2023-05-22T00:31:36.165Z,14.90
2023-05-22T00:34:04.000Z,14.80
2023-05-22T00:36:31.624Z,14.80
2023-05-22T00:38:59.135Z,14.80
2023-05-22T00:41:26.848Z,14.60
2023-05-22T00:43:54.892Z,14.60
2023-05-22T00:46:23.095Z,14.60
2023-05-22T00:48:52.791Z,14.50
2023-05-22T00:51:24.539Z,14.50
2023-05-22T00:53:53.544Z,14.30
2023-05-22T00:56:22.282Z,14.10
2023-05-22T00:58:50.896Z,14.10
2023-05-22T01:01:18.609Z,14.20
2023-05-22T01:03:47.060Z,14.20
2023-05-22T01:06:16.325Z,14.30
2023-05-22T01:08:44.314Z,14.50
2023-05-22T01:11:30.234Z,14.30
2023-05-22T01:13:57.763Z,14.30
2023-05-22T01:16:39.794Z,14.40
2023-05-22T01:19:38.484Z,14.30
2023-05-22T01:22:32.279Z,14.20
2023-05-22T01:25:02.623Z,14.00
2023-05-22T01:27:50.400Z,14.00
2023-05-22T01:30:36.723Z,14.00
2023-05-22T01:33:07.063Z,14.00
2023-05-22T01:35:38.465Z,14.00
2023-05-22T01:38:07.938Z,14.00
2023-05-22T01:40:36.851Z,14.10
2023-05-22T01:43:05.072Z,14.00
2023-05-22T01:45:32.922Z,14.00
2023-05-22T01:48:00.610Z,13.80
2023-05-22T01:50:28.388Z,13.90
2023-05-22T01:53:14.167Z,14.00
2023-05-22T01:56:05.736Z,13.80
2023-05-22T01:58:36.298Z,13.80
2023-05-22T02:01:05.235Z,13.80
2023-05-22T02:03:35.684Z,13.80
2023-05-22T02:06:07.189Z,13.90
2023-05-22T02:08:38.512Z,13.90
2023-05-22T02:11:07.494Z,13.90
2023-05-22T02:13:35.277Z,13.90
2023-05-22T02:16:04.277Z,13.90
2023-05-22T02:18:31.943Z,13.90
2023-05-22T02:21:00.643Z,14.00
2023-05-22T02:23:29.907Z,14.10
2023-05-22T02:25:57.752Z,14.20
2023-05-22T02:28:25.658Z,14.40
2023-05-22T02:30:53.321Z,14.40
2023-05-22T02:33:21.670Z,14.30
2023-05-22T02:35:49.499Z,14.10
2023-05-22T02:38:17.272Z,14.10
2023-05-22T02:40:44.918Z,14.40
2023-05-22T02:43:12.661Z,14.30
2023-05-22T02:45:40.481Z,14.40
2023-05-22T02:48:08.071Z,14.30
2023-05-22T02:50:35.907Z,14.30
2023-05-22T02:53:04.286Z,14.30
2023-05-22T02:55:32.106Z,14.20
2023-05-22T02:57:59.894Z,14.30
2023-05-22T03:00:27.487Z,14.40
2023-05-22T03:02:55.226Z,14.40
2023-05-22T03:05:23.445Z,14.40
2023-05-22T03:07:51.146Z,14.50
2023-05-22T03:10:18.806Z,14.60
2023-05-22T03:12:46.580Z,14.70
2023-05-22T03:15:14.363Z,14.80
2023-05-22T03:17:42.093Z,14.80
2023-05-22T03:20:10.475Z,14.60
2023-05-22T03:22:38.054Z,14.60
2023-05-22T03:25:06.673Z,14.50
2023-05-22T03:27:34.304Z,14.60
2023-05-22T03:30:02.868Z,14.60
2023-05-22T03:32:30.766Z,14.60
2023-05-22T03:34:59.146Z,14.60
2023-05-22T03:37:26.818Z,14.50
2023-05-22T03:39:54.459Z,14.60
2023-05-22T03:42:22.259Z,14.60
2023-05-22T03:44:50.214Z,14.50
2023-05-22T03:47:19.334Z,14.50
2023-05-22T03:49:47.260Z,14.50
2023-05-22T03:52:14.794Z,14.60
2023-05-22T03:54:42.499Z,14.50
2023-05-22T03:57:11.290Z,14.60
2023-05-22T03:59:39.055Z,14.60
2023-05-22T04:02:06.900Z,14.60
2023-05-22T04:04:38.899Z,14.70
2023-05-22T04:07:08.459Z,14.60
2023-05-22T04:09:36.797Z,14.70
2023-05-22T04:12:04.996Z,14.60
2023-05-22T04:14:33.116Z,14.50
2023-05-22T04:17:01.015Z,14.20
2023-05-22T04:19:30.396Z,14.10
2023-05-22T04:21:59.452Z,14.10
2023-05-22T04:24:27.903Z,14.10
2023-05-22T04:26:56.627Z,14.30
2023-05-22T04:29:24.501Z,14.40
2023-05-22T04:31:54.623Z,14.30
2023-05-22T04:34:22.282Z,14.30
2023-05-22T04:36:49.865Z,14.30
2023-05-22T04:39:17.860Z,14.20
2023-05-22T04:41:46.250Z,14.20
2023-05-22T04:44:14.522Z,14.20
2023-05-22T04:46:42.686Z,14.30
2023-05-22T04:49:10.699Z,14.50
2023-05-22T04:51:38.238Z,14.50
2023-05-22T04:54:06.040Z,14.60
2023-05-22T04:56:36.908Z,14.70
2023-05-22T04:59:05.740Z,14.70
2023-05-22T05:01:35.287Z,14.80
2023-05-22T05:04:03.919Z,14.70
2023-05-22T05:06:31.683Z,14.70
2023-05-22T05:08:59.234Z,14.60
2023-05-22T05:11:26.850Z,14.50
2023-05-22T05:13:54.388Z,14.60
2023-05-22T05:16:23.472Z,14.40
2023-05-22T05:18:52.167Z,14.40
2023-05-22T05:21:22.835Z,14.40
2023-05-22T05:23:50.425Z,14.30
2023-05-22T05:26:18.025Z,14.20
2023-05-22T05:28:45.752Z,14.40
2023-05-22T05:31:13.243Z,14.60
2023-05-22T05:33:40.938Z,14.80
2023-05-22T05:36:08.698Z,14.80
2023-05-22T05:38:36.259Z,14.80
2023-05-22T05:41:03.937Z,14.90
2023-05-22T05:43:31.612Z,15.00
2023-05-22T05:45:59.527Z,15.00
2023-05-22T05:48:27.340Z,14.90
2023-05-22T05:50:55.040Z,15.20
2023-05-22T05:53:22.676Z,15.10
2023-05-22T05:55:50.257Z,15.20
2023-05-22T05:58:17.901Z,15.10
2023-05-22T06:00:45.546Z,15.00
2023-05-22T06:03:13.789Z,15.10
2023-05-22T06:05:41.413Z,15.00
2023-05-22T06:08:09.015Z,14.90
2023-05-22T06:10:36.874Z,15.00
2023-05-22T06:13:04.643Z,14.80
2023-05-22T06:15:32.309Z,14.80
2023-05-22T06:18:00.083Z,14.70
2023-05-22T06:20:27.935Z,14.90
2023-05-22T06:22:55.698Z,15.10
2023-05-22T06:25:26.220Z,15.30
2023-05-22T06:27:53.766Z,15.30
2023-05-22T06:30:38.341Z,15.40
2023-05-22T06:33:08.190Z,15.50
2023-05-22T06:35:35.866Z,15.60
2023-05-22T06:38:03.495Z,15.50
2023-05-22T06:40:31.222Z,15.20
2023-05-22T06:42:59.798Z,15.10
2023-05-22T06:45:27.383Z,15.10
2023-05-22T06:47:55.547Z,15.00
2023-05-22T06:50:23.282Z,15.10
2023-05-22T06:52:50.838Z,15.30
2023-05-22T06:55:18.535Z,15.30
2023-05-22T06:57:46.156Z,15.30
2023-05-22T07:00:14.855Z,15.30
2023-05-22T07:02:42.626Z,15.40
2023-05-22T07:05:10.194Z,15.60
2023-05-22T07:07:37.828Z,15.40
2023-05-22T07:10:06.009Z,15.30
2023-05-22T07:12:33.567Z,15.40
2023-05-22T07:15:01.852Z,15.60
2023-05-22T07:17:29.600Z,15.60
2023-05-22T07:19:57.259Z,15.70
2023-05-22T07:22:24.813Z,15.60
2023-05-22T07:24:52.410Z,15.60
2023-05-22T07:27:20.035Z,15.70
2023-05-22T07:29:47.688Z,15.90
2023-05-22T07:32:15.339Z,16.00
2023-05-22T07:34:42.890Z,16.00
2023-05-22T07:37:14.586Z,16.30
2023-05-22T07:39:42.682Z,16.50
2023-05-22T07:42:10.287Z,16.50
2023-05-22T07:44:37.976Z,16.30
2023-05-22T07:47:05.948Z,15.90
2023-05-22T07:49:33.663Z,15.90
2023-05-22T07:52:01.412Z,15.90
2023-05-22T07:54:29.127Z,16.00
2023-05-22T07:56:56.695Z,16.20
2023-05-22T07:59:25.610Z,16.40
2023-05-22T08:01:53.310Z,16.30
2023-05-22T08:04:21.503Z,16.50
2023-05-22T08:06:49.142Z,16.60
2023-05-22T08:09:16.973Z,16.60
2023-05-22T08:11:44.534Z,16.80
2023-05-22T08:14:12.737Z,17.10
2023-05-22T08:16:40.354Z,17.00
2023-05-22T08:19:08.259Z,17.30
2023-05-22T08:21:35.996Z,17.20
2023-05-22T08:24:03.877Z,17.40
2023-05-22T08:26:33.461Z,17.40
2023-05-22T08:29:01.619Z,17.30
2023-05-22T08:31:29.543Z,17.50
2023-05-22T08:34:02.903Z,17.80
2023-05-22T08:36:31.764Z,17.90
2023-05-22T08:38:59.224Z,18.00
2023-05-22T08:41:27.210Z,17.30
2023-05-22T08:43:54.946Z,17.20
2023-05-22T08:46:26.683Z,17.20
2023-05-22T08:48:57.555Z,17.00
2023-05-22T08:51:31.655Z,16.90
2023-05-22T08:54:01.224Z,17.20
2023-05-22T08:56:31.019Z,17.40
2023-05-22T08:59:01.369Z,17.50
2023-05-22T09:01:30.125Z,17.40
2023-05-22T09:47:07.359Z,17.80
2023-05-22T09:49:45.411Z,17.60
2023-05-22T09:52:13.141Z,17.70
2023-05-22T09:55:04.836Z,18.00
2023-05-22T09:57:36.698Z,18.00
2023-05-22T10:00:09.611Z,18.40
2023-05-22T10:02:42.193Z,18.70
2023-05-22T10:05:10.801Z,18.80
2023-05-22T10:07:51.358Z,19.00
2023-05-22T10:10:25.278Z,19.00
2023-05-22T10:13:03.492Z,18.90
2023-05-22T10:15:34.820Z,18.90
2023-05-22T10:18:06.157Z,19.30
2023-05-22T10:20:33.988Z,19.40
2023-05-22T10:23:04.262Z,19.50
2023-05-22T10:25:32.624Z,19.80
2023-05-22T10:28:00.643Z,20.10
2023-05-22T10:31:00.637Z,20.30
2023-05-22T10:33:39.318Z,20.80
2023-05-22T10:36:16.731Z,21.00
2023-05-22T10:38:56.393Z,21.30
2023-05-22T10:41:24.607Z,21.00
2023-05-22T10:43:52.486Z,20.80
2023-05-22T10:46:20.233Z,20.50
2023-05-22T10:48:53.295Z,20.90
2023-05-22T10:51:23.207Z,20.90
2023-05-22T10:54:02.655Z,20.80
2023-05-22T10:56:37.361Z,20.80
2023-05-22T10:59:07.813Z,20.50
2023-05-22T11:01:38.361Z,20.70
2023-05-22T11:04:07.199Z,20.60
2023-05-22T11:06:45.752Z,20.60
2023-05-22T11:09:33.997Z,20.20
2023-05-22T11:12:21.645Z,20.30
2023-05-22T11:15:11.311Z,20.80
2023-05-22T11:17:46.816Z,21.10
2023-05-22T11:20:26.003Z,21.20
2023-05-22T11:22:57.801Z,20.90
2023-05-22T11:25:26.678Z,20.50
2023-05-22T11:27:56.316Z,20.70
2023-05-22T11:30:28.611Z,20.80
2023-05-22T11:32:58.499Z,21.00
2023-05-22T11:35:26.438Z,21.00
2023-05-22T11:37:55.462Z,21.00
2023-05-22T11:40:27.233Z,20.70
2023-05-22T11:42:54.840Z,21.10
2023-05-22T11:45:22.697Z,21.50
2023-05-22T11:47:50.588Z,21.50
2023-05-22T11:50:29.234Z,21.60
2023-05-22T11:53:02.977Z,21.50
2023-05-22T11:55:30.541Z,21.90
2023-05-22T11:57:58.588Z,22.00
2023-05-22T12:00:27.128Z,22.40
2023-05-22T12:02:55.384Z,22.60
2023-05-22T12:05:22.971Z,22.40
2023-05-22T12:07:50.724Z,22.70
2023-05-22T12:10:18.501Z,23.20
2023-05-22T12:12:46.151Z,22.90
2023-05-22T12:15:14.188Z,22.80
2023-05-22T12:17:43.025Z,22.50
2023-05-22T12:20:13.820Z,22.70
2023-05-22T12:22:43.101Z,22.10
2023-05-22T12:25:16.850Z,22.60
2023-05-22T12:27:47.799Z,22.80
2023-05-22T12:30:16.294Z,23.10
2023-05-22T12:32:51.584Z,23.40
2023-05-22T12:35:19.729Z,24.10
2023-05-22T12:37:51.920Z,24.20
2023-05-22T12:40:19.847Z,24.00
2023-05-22T12:42:48.670Z,23.70
2023-05-22T12:45:18.211Z,23.70
2023-05-22T12:47:46.153Z,23.20
2023-05-22T12:50:14.156Z,22.70
2023-05-22T12:52:41.696Z,22.80
2023-05-22T12:55:11.368Z,23.00
2023-05-22T12:57:39.049Z,23.20
2023-05-22T13:00:07.471Z,23.20
2023-05-22T13:02:35.071Z,23.20
2023-05-22T13:05:03.058Z,23.50
2023-05-22T13:07:30.674Z,23.50
2023-05-22T13:09:58.215Z,23.40
2023-05-22T13:12:27.673Z,23.50
2023-05-22T13:14:55.211Z,23.20
2023-05-22T13:17:22.797Z,23.20
2023-05-22T13:19:50.540Z,23.50
2023-05-22T13:22:18.501Z,23.20
2023-05-22T13:24:46.115Z,23.30
2023-05-22T13:27:16.136Z,23.50
2023-05-22T13:29:44.708Z,23.30
2023-05-22T13:32:13.935Z,23.40
2023-05-22T13:34:42.391Z,23.80
2023-05-22T13:37:11.111Z,23.70
2023-05-22T13:39:38.951Z,23.80
2023-05-22T13:42:07.154Z,23.70
2023-05-22T13:44:34.765Z,24.20
2023-05-22T13:47:02.568Z,23.80
2023-05-22T13:49:30.347Z,24.00
2023-05-22T13:51:57.900Z,24.40
2023-05-22T13:54:25.649Z,24.30
2023-05-22T13:56:53.249Z,23.80
2023-05-22T13:59:20.843Z,23.70
2023-05-22T14:01:48.449Z,23.80
2023-05-22T14:04:16.090Z,23.80
2023-05-22T14:06:43.624Z,23.30
2023-05-22T14:09:11.842Z,23.40
2023-05-22T14:11:39.577Z,23.50
2023-05-22T14:14:07.193Z,23.60
2023-05-22T14:16:34.793Z,23.50
2023-05-22T14:19:02.599Z,23.90
2023-05-22T14:21:31.116Z,23.90
2023-05-22T14:23:58.745Z,23.50
2023-05-22T14:26:26.415Z,23.10
2023-05-22T14:28:54.233Z,22.90
2023-05-22T14:31:21.801Z,22.70
2023-05-22T14:33:49.446Z,22.70
2023-05-22T14:36:18.018Z,22.70
2023-05-22T14:38:45.685Z,22.60
2023-05-22T14:41:13.615Z,22.80
2023-05-22T14:43:41.199Z,23.20
2023-05-22T14:46:09.465Z,23.20
2023-05-22T14:48:37.712Z,23.30
2023-05-22T14:51:05.470Z,23.40
2023-05-22T14:53:33.023Z,23.40
2023-05-22T14:56:00.819Z,23.40
2023-05-22T14:58:28.915Z,23.10
2023-05-22T15:00:56.503Z,23.00
2023-05-22T15:03:24.502Z,22.60
2023-05-22T15:05:52.097Z,22.40
2023-05-22T15:08:20.702Z,22.50
2023-05-22T15:10:49.026Z,22.60
2023-05-22T15:13:16.800Z,22.80
2023-05-22T15:15:44.400Z,23.00
2023-05-22T15:18:12.463Z,23.20
2023-05-22T15:20:40.470Z,23.20
2023-05-22T15:23:08.047Z,23.00
2023-05-22T15:25:36.858Z,22.80
2023-05-22T15:28:08.086Z,22.60
2023-05-22T15:30:36.645Z,22.60
2023-05-22T15:33:04.788Z,22.50
2023-05-22T15:35:32.826Z,22.20
2023-05-22T15:38:00.504Z,22.10
2023-05-22T15:40:28.220Z,22.10
2023-05-22T15:42:56.004Z,22.20
2023-05-22T15:45:24.105Z,21.90
2023-05-22T15:47:51.790Z,21.80
2023-05-22T15:50:19.383Z,21.80
2023-05-22T15:52:46.921Z,21.70
2023-05-22T15:55:14.538Z,21.90
2023-05-22T15:57:42.093Z,21.40
2023-05-22T16:00:10.366Z,21.50
2023-05-22T16:02:38.139Z,21.50
2023-05-22T16:05:06.097Z,21.50
2023-05-22T16:07:33.988Z,21.50
2023-05-22T16:10:01.774Z,21.60
2023-05-22T16:12:29.531Z,21.50
2023-05-22T16:15:00.164Z,21.60
2023-05-22T16:17:28.300Z,21.60
2023-05-22T16:19:55.855Z,21.20
2023-05-22T16:22:26.269Z,20.90
2023-05-22T16:24:56.087Z,20.80
2023-05-22T16:27:23.649Z,20.30
2023-05-22T16:29:51.230Z,20.30
2023-05-22T16:32:19.025Z,20.30
2023-05-22T16:34:46.656Z,20.30
2023-05-22T16:37:14.299Z,20.40
2023-05-22T16:39:46.454Z,20.30
2023-05-22T16:42:17.010Z,20.60
2023-05-22T16:44:45.454Z,20.70
2023-05-22T16:47:13.410Z,20.60
2023-05-22T16:49:41.496Z,20.60
2023-05-22T16:52:09.183Z,20.50
2023-05-22T16:54:39.585Z,20.40
2023-05-22T16:57:07.755Z,20.30
2023-05-22T16:59:35.571Z,20.30
2023-05-22T17:02:03.925Z,20.20
2023-05-22T17:04:31.610Z,20.20
2023-05-22T17:06:59.468Z,20.00
2023-05-22T17:09:27.801Z,20.00
2023-05-22T17:11:55.934Z,19.90
2023-05-22T17:14:26.055Z,19.90
2023-05-22T17:16:54.501Z,19.90
2023-05-22T17:19:22.311Z,19.90
2023-05-22T17:21:49.982Z,19.80
2023-05-22T17:24:17.489Z,19.90
2023-05-22T17:26:45.040Z,19.70
2023-05-22T17:29:12.750Z,19.60
2023-05-22T17:31:40.416Z,19.70
2023-05-22T17:34:08.017Z,19.70
2023-05-22T17:36:36.127Z,19.50
2023-05-22T17:39:03.829Z,19.40
2023-05-22T17:41:31.397Z,19.30
2023-05-22T17:44:01.128Z,19.20
2023-05-22T17:46:28.773Z,19.30
2023-05-22T17:48:56.648Z,19.30
2023-05-22T17:51:24.311Z,19.30
2023-05-22T17:53:56.127Z,19.40
2023-05-22T17:56:23.800Z,19.50
2023-05-22T17:58:51.469Z,19.30
2023-05-22T18:01:19.579Z,19.40
2023-05-22T18:03:47.554Z,19.50
2023-05-22T18:06:15.498Z,19.70
2023-05-22T18:08:43.132Z,19.80
2023-05-22T18:11:10.671Z,19.90
2023-05-22T18:13:38.331Z,19.50
2023-05-22T18:16:06.229Z,19.40
2023-05-22T18:18:33.868Z,19.40
2023-05-22T18:21:03.462Z,19.00
2023-05-22T18:23:31.096Z,18.80
2023-05-22T18:25:58.996Z,18.70
2023-05-22T18:28:26.880Z,18.90
2023-05-22T18:30:56.318Z,19.00
2023-05-22T18:33:25.073Z,19.00
2023-05-22T18:35:52.977Z,18.90
2023-05-22T18:38:22.241Z,18.90
2023-05-22T18:40:49.892Z,18.70
2023-05-22T18:43:18.141Z,18.40
2023-05-22T18:45:45.992Z,18.10
2023-05-22T18:48:13.770Z,18.10
2023-05-22T18:50:41.930Z,18.20
2023-05-22T18:53:10.724Z,18.20
2023-05-22T18:55:38.356Z,18.00
2023-05-22T18:58:06.233Z,17.80
2023-05-22T19:00:35.312Z,17.80
2023-05-22T19:03:03.996Z,17.90
2023-05-22T19:05:31.690Z,17.80
2023-05-22T19:08:01.820Z,17.60
2023-05-22T19:10:29.889Z,17.40
2023-05-22T19:12:57.556Z,17.30
2023-05-22T19:15:26.105Z,17.20
2023-05-22T19:17:53.712Z,17.20
2023-05-22T19:20:22.499Z,17.20
2023-05-22T19:22:51.564Z,17.10
2023-05-22T19:25:19.217Z,17.00
2023-05-22T19:27:48.070Z,16.90
2023-05-22T19:30:16.679Z,16.90
2023-05-22T19:32:44.260Z,16.90
2023-05-22T19:35:11.861Z,16.70
2023-05-22T19:37:39.415Z,16.60
2023-05-22T19:40:07.575Z,16.50
2023-05-22T19:42:37.392Z,16.40
2023-05-22T19:45:06.007Z,16.30
2023-05-22T19:47:33.764Z,16.40
2023-05-22T19:50:01.572Z,16.20
2023-05-22T19:52:29.311Z,16.00
2023-05-22T19:54:56.869Z,15.90
2023-05-22T19:57:24.440Z,15.90
2023-05-22T19:59:52.091Z,16.10
2023-05-22T20:02:19.745Z,16.20
2023-05-22T20:04:48.929Z,16.20
2023-05-22T20:07:16.946Z,16.10
2023-05-22T20:09:44.528Z,16.00
2023-05-22T20:12:12.104Z,16.20
2023-05-22T20:14:40.233Z,16.20
2023-05-22T20:17:07.794Z,16.30
2023-05-22T20:19:35.526Z,16.40
2023-05-22T20:22:05.611Z,16.40
2023-05-22T20:24:33.395Z,16.30
2023-05-22T20:27:04.829Z,16.30
2023-05-22T20:29:32.674Z,16.30
2023-05-22T20:32:00.368Z,16.20
2023-05-22T20:34:28.966Z,16.20
2023-05-22T20:36:56.626Z,16.10
2023-05-22T20:39:24.266Z,16.10
2023-05-22T20:41:53.131Z,16.10
2023-05-22T20:44:25.277Z,16.00
2023-05-22T20:46:53.609Z,15.90
2023-05-22T20:49:21.408Z,15.80
2023-05-22T20:51:50.337Z,15.80
2023-05-22T20:54:18.500Z,15.70
2023-05-22T20:56:46.156Z,15.60
2023-05-22T20:59:13.943Z,15.60
2023-05-22T21:01:41.578Z,15.60
2023-05-22T21:04:09.212Z,15.50
2023-05-22T21:06:36.933Z,15.30
2023-05-22T21:09:04.522Z,15.20
2023-05-22T21:11:32.173Z,15.10
2023-05-22T21:13:59.815Z,15.20
2023-05-22T21:16:27.384Z,15.10
2023-05-22T21:18:55.151Z,15.00
2023-05-22T21:21:22.815Z,14.90
2023-05-22T21:23:50.962Z,14.90
2023-05-22T21:26:18.661Z,14.80
2023-05-22T21:28:46.685Z,14.80
2023-05-22T21:31:14.372Z,14.70
2023-05-22T21:33:42.007Z,14.60
2023-05-22T21:36:09.650Z,14.60
2023-05-22T21:38:43.099Z,14.60
2023-05-22T21:41:11.830Z,14.60
2023-05-22T21:43:39.668Z,14.50
2023-05-22T21:46:07.354Z,14.60
2023-05-22T21:48:34.976Z,14.60
2023-05-22T21:51:02.903Z,14.60
2023-05-22T21:53:30.542Z,14.60
2023-05-22T21:55:58.466Z,14.60
2023-05-22T21:58:26.064Z,14.60
2023-05-22T22:00:53.710Z,14.60
2023-05-22T22:03:24.563Z,14.70
2023-05-22T22:05:52.881Z,14.70
2023-05-22T22:08:20.811Z,14.60
2023-05-22T22:10:49.700Z,14.60
2023-05-22T22:13:17.545Z,14.60
2023-05-22T22:15:45.548Z,14.60
2023-05-22T22:22:01.294Z,14.60
2023-05-22T22:24:29.684Z,14.60
2023-05-22T22:26:57.343Z,14.70
2023-05-22T22:29:24.911Z,14.70
2023-05-22T22:31:53.153Z,14.70
2023-05-22T22:34:21.008Z,14.80
2023-05-22T22:36:48.670Z,14.80
2023-05-22T22:39:16.277Z,14.80
2023-05-22T22:41:43.878Z,14.80
2023-05-22T22:44:11.803Z,14.80
2023-05-22T22:46:39.830Z,14.90
2023-05-22T22:49:08.826Z,14.80
2023-05-22T22:51:36.949Z,14.90
2023-05-22T22:54:04.539Z,14.90
2023-05-22T22:56:32.218Z,15.00
2023-05-22T22:58:59.796Z,15.00
2023-05-22T23:01:27.567Z,14.90
2023-05-22T23:03:55.343Z,14.90
2023-05-22T23:06:24.036Z,14.80
2023-05-22T23:08:51.558Z,14.80
2023-05-22T23:11:19.162Z,14.70
2023-05-22T23:13:46.790Z,14.70
2023-05-22T23:16:14.425Z,14.70
2023-05-22T23:18:41.979Z,14.70
2023-05-22T23:21:10.256Z,14.70
2023-05-22T23:23:37.804Z,14.70
2023-05-22T23:26:05.487Z,14.70
2023-05-22T23:28:33.102Z,14.60
2023-05-22T23:31:00.718Z,14.60
2023-05-22T23:33:28.313Z,14.70
2023-05-22T23:35:55.911Z,14.80
2023-05-22T23:38:23.441Z,14.80
2023-05-22T23:40:51.014Z,14.80
2023-05-22T23:43:20.751Z,14.80
2023-05-22T23:45:48.668Z,14.80
2023-05-22T23:48:17.101Z,14.80
2023-05-22T23:50:44.932Z,14.80
2023-05-22T23:53:12.459Z,14.80
2023-05-22T23:55:40.415Z,14.90
2023-05-22T23:58:08.447Z,14.90
